Time;durP1;ratioP1;P1;durP2;ratioP2;P2;SDS_P1;SDS_P2;PMS_P1;PMS_P2;Temp;Humidity;BMP_temperature;BMP_pressure;BME280_temperature;BME280_humidity;BME280_pressure;Samples;Min_cycle;Max_cycle;Signal;HPM_P1;HPM_P2
2023/09/14 00:00:35;;;;;;;4.88;2.22;;;12.60;99.90;;;;;;5126250;27;20043;-85
2023/09/14 00:03:02;;;;;;;3.83;2.17;;;12.70;99.90;;;;;;5129144;27;20129;-85
2023/09/14 00:05:28;;;;;;;4.30;1.85;;;12.30;99.90;;;;;;5147252;27;20034;-85
2023/09/14 00:07:54;;;;;;;7.88;2.67;;;12.60;99.90;;;;;;5143311;27;20110;-85
2023/09/14 00:10:20;;;;;;;6.65;2.60;;;12.50;99.90;;;;;;5126074;27;20138;-84
2023/09/14 00:12:46;;;;;;;5.30;2.33;;;12.50;99.90;;;;;;5146550;27;20035;-85
2023/09/14 00:15:11;;;;;;;4.95;2.20;;;12.50;99.90;;;;;;5146820;27;20045;-84
2023/09/14 00:17:37;;;;;;;4.78;2.55;;;12.40;99.90;;;;;;5146075;27;20042;-84
2023/09/14 00:20:06;;;;;;;7.50;2.55;;;12.40;99.90;;;;;;5108434;27;20105;-84
2023/09/14 00:22:32;;;;;;;5.47;2.53;;;12.40;99.90;;;;;;5143570;27;20402;-84
2023/09/14 00:24:58;;;;;;;3.80;2.13;;;12.50;99.90;;;;;;5146943;27;20405;-84
2023/09/14 00:27:24;;;;;;;6.40;2.25;;;12.40;99.90;;;;;;5147738;27;20079;-84
2023/09/14 00:29:49;;;;;;;6.47;2.70;;;13.60;99.90;;;;;;5143187;27;20043;-84
2023/09/14 00:32:16;;;;;;;3.65;2.25;;;12.50;99.90;;;;;;5143857;27;20122;-85
2023/09/14 00:34:41;;;;;;;4.82;2.00;;;12.50;99.90;;;;;;5144905;27;20482;-84
2023/09/14 00:37:07;;;;;;;4.90;2.13;;;14.30;99.90;;;;;;5146405;27;20047;-85
2023/09/14 00:39:33;;;;;;;7.47;2.20;;;12.50;99.90;;;;;;5146488;27;20041;-85
2023/09/14 00:41:58;;;;;;;3.50;2.60;;;12.50;99.90;;;;;;5125189;27;20363;-83
2023/09/14 00:44:24;;;;;;;3.10;2.05;;;13.10;99.90;;;;;;5124337;27;20424;-84
2023/09/14 00:46:50;;;;;;;2.63;1.70;;;12.50;99.90;;;;;;5127493;27;20072;-83
2023/09/14 00:49:16;;;;;;;5.25;2.10;;;14.00;99.90;;;;;;5149204;27;20035;-84
2023/09/14 00:51:41;;;;;;;8.57;1.95;;;12.60;99.90;;;;;;5125954;27;20039;-83
2023/09/14 00:54:07;;;;;;;5.57;2.55;;;12.50;99.90;;;;;;5131214;27;20095;-83
2023/09/14 00:56:34;;;;;;;3.75;2.00;;;12.50;99.90;;;;;;5107396;27;20126;-84
2023/09/14 00:58:59;;;;;;;3.90;2.15;;;14.40;99.90;;;;;;5111149;27;20165;-83
2023/09/14 01:01:25;;;;;;;6.25;2.20;;;12.50;99.90;;;;;;5147069;27;20117;-83
2023/09/14 01:03:51;;;;;;;5.00;1.95;;;12.50;99.90;;;;;;5106807;27;20047;-84
2023/09/14 01:06:16;;;;;;;3.22;1.73;;;13.50;99.90;;;;;;5107761;27;20065;-83
2023/09/14 01:08:42;;;;;;;4.82;2.25;;;12.50;99.90;;;;;;5125596;27;20130;-83
2023/09/14 01:11:08;;;;;;;4.22;2.13;;;12.50;99.90;;;;;;5127449;27;20111;-84
2023/09/14 01:13:56;;;;;;;6.25;2.58;;;12.50;99.90;;;;;;5127614;27;20470;-84
2023/09/14 01:16:32;;;;;;;4.13;2.28;;;12.50;99.90;;;;;;5142360;27;20390;-84
2023/09/14 01:19:19;;;;;;;4.38;2.28;;;12.50;99.90;;;;;;5142060;27;20047;-84
2023/09/14 01:21:53;;;;;;;7.30;2.15;;;14.20;99.90;;;;;;5108528;27;20055;-83
2023/09/14 01:24:43;;;;;;;10.07;2.35;;;12.50;99.90;;;;;;5146306;27;20081;-84
2023/09/14 01:27:09;;;;;;;14.55;2.20;;;12.50;99.90;;;;;;5142593;27;20046;-84
2023/09/14 01:29:35;;;;;;;3.63;2.00;;;12.50;99.90;;;;;;5142715;27;20133;-83
2023/09/14 01:32:00;;;;;;;7.13;2.47;;;12.50;99.90;;;;;;5127146;27;20043;-84
2023/09/14 01:34:27;;;;;;;4.53;2.20;;;12.50;99.90;;;;;;5127633;27;20105;-84
2023/09/14 01:36:58;;;;;;;6.57;2.03;;;12.50;99.90;;;;;;5124925;27;20051;-84
2023/09/14 01:39:25;;;;;;;3.13;2.05;;;12.50;99.90;;;;;;5142643;27;20051;-84
2023/09/14 01:41:55;;;;;;;5.93;2.90;;;12.50;99.90;;;;;;5144642;27;20095;-84
2023/09/14 01:44:30;;;;;;;7.05;2.00;;;13.20;99.90;;;;;;5145523;27;20046;-84
2023/09/14 01:46:56;;;;;;;5.75;2.13;;;14.20;99.90;;;;;;5123559;27;20031;-84
2023/09/14 01:49:22;;;;;;;5.72;2.05;;;12.40;99.90;;;;;;5142505;27;20043;-84
2023/09/14 01:51:48;;;;;;;4.97;1.90;;;13.20;99.90;;;;;;5143700;27;20038;-84
2023/09/14 01:54:14;;;;;;;4.45;2.13;;;13.70;99.90;;;;;;5145319;27;20034;-84
2023/09/14 01:56:41;;;;;;;3.95;2.13;;;13.10;99.90;;;;;;5126327;27;20042;-84
2023/09/14 01:59:07;;;;;;;7.13;2.08;;;13.40;99.90;;;;;;5141823;27;20522;-84
2023/09/14 02:01:32;;;;;;;5.95;2.15;;;12.20;99.90;;;;;;5141302;27;20035;-84
2023/09/14 02:03:58;;;;;;;4.60;1.88;;;13.70;99.90;;;;;;5141661;27;20088;-84
2023/09/14 02:06:23;;;;;;;5.90;1.88;;;12.20;99.90;;;;;;5142264;27;20100;-84
2023/09/14 02:08:49;;;;;;;4.63;2.38;;;12.10;99.90;;;;;;5142756;27;20402;-84
2023/09/14 02:11:15;;;;;;;5.47;1.90;;;12.70;99.90;;;;;;5126996;27;20046;-85
2023/09/14 02:13:40;;;;;;;7.45;2.85;;;12.00;99.90;;;;;;5144016;27;20046;-84
2023/09/14 02:16:06;;;;;;;7.32;2.20;;;12.00;99.90;;;;;;5122711;27;20486;-84
2023/09/14 02:18:32;;;;;;;3.35;2.35;;;12.00;99.90;;;;;;5141468;27;20035;-84
2023/09/14 02:20:58;;;;;;;7.65;2.40;;;11.90;99.90;;;;;;5143199;27;20057;-84
2023/09/14 02:23:24;;;;;;;3.03;2.35;;;13.60;99.90;;;;;;5145135;27;20065;-84
2023/09/14 02:25:51;;;;;;;3.38;1.70;;;11.90;99.90;;;;;;5142738;27;20401;-84
2023/09/14 02:28:19;;;;;;;4.50;2.50;;;12.10;99.90;;;;;;5140780;27;20494;-84
2023/09/14 02:30:45;;;;;;;8.80;2.00;;;11.90;99.90;;;;;;5142215;27;20139;-84
2023/09/14 02:33:11;;;;;;;6.45;1.98;;;11.80;99.90;;;;;;5144973;27;20542;-84
2023/09/14 02:35:38;;;;;;;4.20;2.00;;;13.50;99.90;;;;;;5121507;27;20071;-84
2023/09/14 02:38:04;;;;;;;6.38;1.98;;;11.80;99.90;;;;;;5120708;27;20044;-84
2023/09/14 02:40:30;;;;;;;5.55;2.40;;;11.70;99.90;;;;;;5119500;27;20051;-84
2023/09/14 02:42:56;;;;;;;4.57;2.10;;;11.70;99.90;;;;;;5122178;27;20048;-85
2023/09/14 02:45:22;;;;;;;5.80;2.35;;;11.70;99.90;;;;;;5122583;27;20142;-84
2023/09/14 02:47:47;;;;;;;8.50;2.03;;;11.70;99.90;;;;;;5122571;27;20043;-84
2023/09/14 02:50:13;;;;;;;5.57;2.05;;;13.40;99.90;;;;;;5118878;27;20032;-84
2023/09/14 02:52:39;;;;;;;5.93;2.53;;;11.60;99.90;;;;;;5101950;28;20046;-84
2023/09/14 02:55:05;;;;;;;2.90;1.83;;;11.60;99.90;;;;;;5105102;27;20035;-84
2023/09/14 02:57:30;;;;;;;2.92;1.95;;;11.60;99.90;;;;;;5123146;27;20075;-84
2023/09/14 02:59:56;;;;;;;4.85;1.98;;;11.50;99.90;;;;;;5121453;27;20039;-84
2023/09/14 03:02:22;;;;;;;7.95;2.63;;;11.50;99.90;;;;;;5119086;27;20507;-84
2023/09/14 03:04:48;;;;;;;5.32;2.42;;;11.40;99.90;;;;;;5118780;27;20043;-84
2023/09/14 03:07:15;;;;;;;4.75;2.03;;;12.20;99.90;;;;;;5123900;27;20498;-84
2023/09/14 03:09:41;;;;;;;3.28;1.67;;;11.40;99.90;;;;;;5123702;27;20043;-84
2023/09/14 03:12:07;;;;;;;4.10;2.10;;;11.40;99.90;;;;;;5118016;27;20035;-84
2023/09/14 03:14:32;;;;;;;5.53;2.03;;;11.30;99.90;;;;;;5119604;27;20407;-84
2023/09/14 03:16:58;;;;;;;5.78;1.85;;;11.30;99.90;;;;;;5121192;27;20173;-84
2023/09/14 03:19:24;;;;;;;5.75;1.92;;;11.30;99.90;;;;;;5123999;27;20084;-84
2023/09/14 03:21:50;;;;;;;5.05;2.20;;;11.30;99.90;;;;;;5121127;27;20148;-84
2023/09/14 03:24:16;;;;;;;7.25;1.73;;;11.30;99.90;;;;;;5119309;27;20118;-84
2023/09/14 03:26:42;;;;;;;4.38;1.55;;;11.30;99.90;;;;;;5118693;27;20145;-84
2023/09/14 03:29:07;;;;;;;5.35;2.20;;;11.20;99.90;;;;;;5121985;27;20110;-84
2023/09/14 03:31:34;;;;;;;3.97;2.00;;;11.20;99.90;;;;;;5122227;27;20051;-84
2023/09/14 03:34:01;;;;;;;1.60;1.50;;;11.20;99.90;;;;;;5120888;27;20062;-84
2023/09/14 03:36:27;;;;;;;4.07;2.10;;;11.20;99.90;;;;;;5137210;27;20086;-84
2023/09/14 03:38:53;;;;;;;1.58;1.45;;;11.20;99.90;;;;;;5122236;27;20131;-84
2023/09/14 03:41:18;;;;;;;4.80;2.10;;;11.10;99.90;;;;;;5125563;27;20042;-84
2023/09/14 03:43:44;;;;;;;4.22;1.80;;;11.40;99.90;;;;;;5143252;27;20057;-84
2023/09/14 03:46:14;;;;;;;3.17;1.67;;;11.10;99.90;;;;;;5112622;28;20035;-84
2023/09/14 03:48:40;;;;;;;2.97;1.60;;;12.60;99.90;;;;;;5122335;28;20122;-84
2023/09/14 03:51:06;;;;;;;6.05;1.60;;;11.10;99.90;;;;;;5124711;27;20126;-83
2023/09/14 03:53:32;;;;;;;4.43;1.60;;;11.10;99.90;;;;;;5142744;27;20042;-84
2023/09/14 03:55:59;;;;;;;6.50;1.60;;;11.00;99.90;;;;;;5123598;27;20051;-84
2023/09/14 03:58:26;;;;;;;2.70;1.85;;;11.00;99.90;;;;;;5122062;28;20043;-84
2023/09/14 04:00:51;;;;;;;2.45;1.20;;;13.10;99.90;;;;;;5139989;27;20035;-84
2023/09/14 04:03:18;;;;;;;3.03;1.38;;;11.00;99.90;;;;;;5125310;27;20111;-83
2023/09/14 04:05:44;;;;;;;3.75;1.95;;;11.90;99.90;;;;;;5124842;27;20050;-83
2023/09/14 04:08:10;;;;;;;2.88;1.70;;;12.50;99.90;;;;;;5121181;27;20035;-84
2023/09/14 04:10:39;;;;;;;3.13;1.65;;;10.90;99.90;;;;;;5104699;28;20046;-84
2023/09/14 04:13:25;;;;;;;3.85;1.67;;;10.90;99.90;;;;;;5142320;27;20124;-84
2023/09/14 04:15:51;;;;;;;3.55;1.45;;;12.50;99.90;;;;;;5142620;27;20059;-84
2023/09/14 04:18:17;;;;;;;3.28;1.73;;;10.80;99.90;;;;;;5140312;27;20395;-84
2023/09/14 04:20:44;;;;;;;5.18;2.00;;;10.80;99.90;;;;;;5120670;28;20053;-84
2023/09/14 04:23:09;;;;;;;4.03;1.70;;;10.80;99.90;;;;;;5124108;27;20438;-84
2023/09/14 04:25:36;;;;;;;2.80;1.15;;;10.70;99.90;;;;;;5109775;28;20043;-84
2023/09/14 04:28:05;;;;;;;4.63;1.50;;;10.70;99.90;;;;;;5105610;27;20045;-84
2023/09/14 04:30:30;;;;;;;3.70;1.30;;;10.70;99.90;;;;;;5143456;27;20039;-84
2023/09/14 04:32:56;;;;;;;3.05;1.38;;;10.60;99.90;;;;;;5123600;27;20113;-84
2023/09/14 04:35:22;;;;;;;3.83;1.10;;;10.70;99.90;;;;;;5120268;27;20440;-84
2023/09/14 04:37:47;;;;;;;3.47;1.77;;;10.60;99.90;;;;;;5139479;27;20122;-83
2023/09/14 04:40:13;;;;;;;1.98;1.42;;;10.60;99.90;;;;;;5143285;27;20653;-84
2023/09/14 04:42:39;;;;;;;4.25;1.40;;;12.00;99.90;;;;;;5143400;27;20035;-85
2023/09/14 04:45:05;;;;;;;2.47;1.67;;;10.60;99.90;;;;;;5144497;27;20034;-85
2023/09/14 04:47:30;;;;;;;2.95;1.17;;;10.60;99.90;;;;;;5124884;27;20462;-85
2023/09/14 04:49:56;;;;;;;2.55;1.27;;;10.60;99.90;;;;;;5143567;27;20050;-85
2023/09/14 04:52:22;;;;;;;3.55;1.50;;;10.50;99.90;;;;;;5147224;27;20042;-84
2023/09/14 04:54:47;;;;;;;3.70;1.45;;;10.50;99.90;;;;;;5127678;27;20034;-85
2023/09/14 04:57:13;;;;;;;2.15;1.45;;;10.50;99.90;;;;;;5143887;27;20035;-85
2023/09/14 04:59:38;;;;;;;3.13;2.03;;;10.40;99.90;;;;;;5124932;27;20418;-84
2023/09/14 05:02:04;;;;;;;5.20;2.08;;;11.50;99.90;;;;;;5128703;27;20043;-84
2023/09/14 05:04:30;;;;;;;7.53;1.80;;;10.40;99.90;;;;;;5147648;27;20043;-85
2023/09/14 05:06:57;;;;;;;4.85;1.85;;;11.30;99.90;;;;;;5127635;27;20042;-84
2023/09/14 05:09:22;;;;;;;3.72;1.80;;;10.40;99.90;;;;;;5124910;27;20070;-84
2023/09/14 05:11:48;;;;;;;2.03;1.27;;;11.60;99.90;;;;;;5106473;27;20083;-84
2023/09/14 05:14:13;;;;;;;3.67;1.75;;;10.40;99.90;;;;;;5145615;27;20038;-84
2023/09/14 05:16:39;;;;;;;5.43;1.48;;;10.40;99.90;;;;;;5127118;27;20046;-84
2023/09/14 05:19:05;;;;;;;2.92;1.42;;;10.30;99.90;;;;;;5126307;27;20043;-84
2023/09/14 05:21:30;;;;;;;4.53;1.50;;;9.20;99.90;;;;;;5143026;27;20480;-84
2023/09/14 05:23:56;;;;;;;2.83;1.67;;;10.30;99.90;;;;;;5142040;27;20947;-84
2023/09/14 05:26:21;;;;;;;2.28;1.80;;;11.30;99.90;;;;;;5128026;27;20031;-84
2023/09/14 05:28:47;;;;;;;5.88;1.73;;;10.30;99.90;;;;;;5127430;27;20118;-83
2023/09/14 05:31:13;;;;;;;2.53;1.63;;;10.30;99.90;;;;;;5124889;27;20043;-84
2023/09/14 05:33:38;;;;;;;5.18;2.03;;;11.90;99.90;;;;;;5143244;27;20051;-85
2023/09/14 05:36:05;;;;;;;3.53;2.03;;;10.30;99.90;;;;;;5121696;27;20044;-84
2023/09/14 05:38:31;;;;;;;4.43;1.95;;;10.30;99.90;;;;;;5124742;27;20122;-85
2023/09/14 05:40:56;;;;;;;4.07;1.73;;;10.30;99.90;;;;;;5123844;27;20130;-84
2023/09/14 05:43:22;;;;;;;2.53;1.90;;;10.30;99.90;;;;;;5121712;27;20087;-85
2023/09/14 05:45:49;;;;;;;2.05;1.73;;;12.10;99.90;;;;;;5120802;27;20457;-85
2023/09/14 05:48:15;;;;;;;3.20;1.70;;;11.40;99.90;;;;;;5124680;27;20159;-85
2023/09/14 05:50:40;;;;;;;5.28;2.00;;;10.30;99.90;;;;;;5123991;27;20483;-85
2023/09/14 05:53:06;;;;;;;5.68;2.13;;;10.30;99.90;;;;;;5123017;27;20128;-84
2023/09/14 05:55:32;;;;;;;4.82;2.17;;;10.40;99.90;;;;;;5120073;27;20039;-85
2023/09/14 05:57:57;;;;;;;3.03;1.70;;;12.30;99.90;;;;;;5120746;27;20391;-84
2023/09/14 06:00:23;;;;;;;2.38;1.40;;;10.40;99.90;;;;;;5123408;27;20439;-85
2023/09/14 06:02:48;;;;;;;2.50;1.50;;;10.40;99.90;;;;;;5124516;27;20137;-85
2023/09/14 06:05:14;;;;;;;3.25;1.52;;;10.40;99.90;;;;;;5122448;27;20180;-84
2023/09/14 06:07:40;;;;;;;7.13;1.65;;;11.80;99.90;;;;;;5120598;27;20071;-84
2023/09/14 06:10:07;;;;;;;2.70;1.60;;;10.50;99.90;;;;;;5122336;27;20479;-85
2023/09/14 06:12:32;;;;;;;3.30;1.52;;;10.50;99.90;;;;;;5123389;27;20088;-85
2023/09/14 06:14:58;;;;;;;3.80;1.48;;;10.50;99.90;;;;;;5122303;27;20073;-85
2023/09/14 06:17:24;;;;;;;3.53;2.08;;;10.50;99.90;;;;;;5128657;27;20042;-85
2023/09/14 06:19:49;;;;;;;4.38;1.73;;;12.10;99.90;;;;;;5121091;27;20097;-85
2023/09/14 06:22:15;;;;;;;4.65;1.92;;;12.40;99.90;;;;;;5122631;27;20483;-85
2023/09/14 06:24:41;;;;;;;4.25;2.15;;;12.50;99.90;;;;;;5124611;27;20150;-85
2023/09/14 06:27:06;;;;;;;5.38;2.88;;;10.60;99.90;;;;;;5123189;27;20047;-85
2023/09/14 06:29:32;;;;;;;4.07;2.10;;;10.60;99.90;;;;;;5119777;27;20138;-85
2023/09/14 06:31:58;;;;;;;3.78;2.13;;;11.80;99.90;;;;;;5120377;27;20437;-85
2023/09/14 06:34:24;;;;;;;3.50;1.50;;;10.70;99.90;;;;;;5122214;27;20092;-85
2023/09/14 06:36:49;;;;;;;4.30;1.65;;;10.70;99.90;;;;;;5123904;27;20116;-85
2023/09/14 06:39:15;;;;;;;6.25;1.98;;;10.70;99.90;;;;;;5121458;27;20036;-85
2023/09/14 06:41:41;;;;;;;3.80;2.00;;;10.80;99.90;;;;;;5101845;28;20047;-85
2023/09/14 06:44:08;;;;;;;4.90;2.20;;;10.80;99.90;;;;;;5121890;27;20088;-85
2023/09/14 06:46:33;;;;;;;7.85;1.98;;;10.80;99.90;;;;;;5126545;27;20042;-84
2023/09/14 06:48:59;;;;;;;7.00;1.88;;;10.90;99.90;;;;;;5122481;27;20039;-85
2023/09/14 06:51:25;;;;;;;3.38;1.83;;;10.80;99.90;;;;;;5102363;27;20122;-84
2023/09/14 06:53:51;;;;;;;3.35;2.00;;;12.30;99.90;;;;;;5118544;27;20039;-85
2023/09/14 06:56:17;;;;;;;4.63;1.75;;;10.80;99.90;;;;;;5120439;27;20099;-85
2023/09/14 06:58:42;;;;;;;7.07;2.58;;;10.90;99.90;;;;;;5122348;27;20040;-85
2023/09/14 07:01:08;;;;;;;3.97;1.70;;;10.90;99.90;;;;;;5122964;27;20035;-84
2023/09/14 07:03:34;;;;;;;4.57;1.83;;;12.70;99.90;;;;;;5117874;27;20118;-85
2023/09/14 07:06:01;;;;;;;5.72;1.65;;;11.00;99.90;;;;;;5119802;27;20479;-85
2023/09/14 07:08:26;;;;;;;4.43;1.80;;;12.90;99.90;;;;;;5122389;27;20517;-85
2023/09/14 07:10:54;;;;;;;6.07;1.80;;;11.10;99.90;;;;;;5122597;27;20035;-84
2023/09/14 07:13:21;;;;;;;4.40;1.50;;;9.80;99.90;;;;;;5122528;27;20043;-84
2023/09/14 07:15:46;;;;;;;5.70;1.42;;;11.20;99.90;;;;;;5119999;27;20036;-85
2023/09/14 07:18:28;;;;;;;5.45;1.67;;;11.20;99.90;;;;;;5118952;27;20048;-85
2023/09/14 07:20:55;;;;;;;7.45;1.88;;;11.30;99.90;;;;;;5122317;27;20038;-84
2023/09/14 07:23:21;;;;;;;6.70;1.83;;;11.30;99.90;;;;;;5120690;27;20050;-84
2023/09/14 07:25:48;;;;;;;2.97;1.10;;;11.40;99.90;;;;;;5118178;27;20055;-85
2023/09/14 07:28:17;;;;;;;5.95;1.40;;;11.40;99.90;;;;;;5119821;27;20074;-84
2023/09/14 07:30:42;;;;;;;6.07;1.70;;;11.50;99.90;;;;;;5104556;28;20482;-84
2023/09/14 07:33:10;;;;;;;2.28;0.70;;;11.50;99.90;;;;;;5122826;27;20042;-85
2023/09/14 07:35:36;;;;;;;4.82;1.35;;;11.60;99.90;;;;;;5118602;27;20052;-84
2023/09/14 07:38:02;;;;;;;8.23;1.08;;;11.70;99.90;;;;;;5118298;28;20081;-85
2023/09/14 07:40:28;;;;;;;1.45;1.25;;;11.70;99.90;;;;;;5121915;28;20402;-85
2023/09/14 07:42:54;;;;;;;2.45;0.70;;;11.80;99.90;;;;;;5122945;27;20538;-85
2023/09/14 07:45:19;;;;;;;4.60;1.10;;;11.90;99.90;;;;;;5119563;28;20039;-85
2023/09/14 07:47:45;;;;;;;4.07;1.10;;;12.00;99.90;;;;;;5119766;28;20122;-85
2023/09/14 07:50:11;;;;;;;2.20;1.00;;;12.10;99.90;;;;;;5118918;28;20057;-86
2023/09/14 07:52:37;;;;;;;4.20;0.70;;;13.70;99.90;;;;;;5122559;28;20088;-85
2023/09/14 07:55:04;;;;;;;3.92;0.80;;;14.30;99.90;;;;;;5121563;28;20035;-86
2023/09/14 07:57:29;;;;;;;6.32;0.85;;;12.20;99.90;;;;;;5102136;28;20048;-85
2023/09/14 07:59:55;;;;;;;3.67;0.73;;;12.40;99.90;;;;;;5118942;28;20058;-85
2023/09/14 08:02:21;;;;;;;5.80;0.77;;;12.50;99.90;;;;;;5121149;28;20040;-85
2023/09/14 08:04:46;;;;;;;4.35;0.60;;;12.60;99.90;;;;;;5122366;28;20096;-85
2023/09/14 08:07:12;;;;;;;5.22;0.98;;;13.80;99.90;;;;;;5122346;28;20046;-85
2023/09/14 08:09:40;;;;;;;4.95;0.80;;;11.20;99.90;;;;;;5119507;28;20119;-86
2023/09/14 08:12:06;;;;;;;8.23;1.20;;;14.30;99.90;;;;;;5119315;28;20495;-86
2023/09/14 08:14:32;;;;;;;3.83;0.98;;;13.00;99.90;;;;;;5121194;28;20073;-85
2023/09/14 08:16:57;;;;;;;6.30;1.25;;;13.00;99.90;;;;;;5122695;27;20079;-86
2023/09/14 08:19:23;;;;;;;6.93;1.10;;;13.10;99.90;;;;;;5125365;27;20442;-84
2023/09/14 08:21:49;;;;;;;7.97;1.48;;;13.90;99.90;;;;;;5122497;27;20031;-84
2023/09/14 08:24:14;;;;;;;7.97;1.20;;;13.30;99.90;;;;;;5123622;27;20050;-84
2023/09/14 08:26:40;;;;;;;3.03;0.88;;;13.40;99.90;;;;;;5126479;27;20031;-85
2023/09/14 08:29:05;;;;;;;6.68;1.40;;;14.30;99.90;;;;;;5127659;27;20402;-85
2023/09/14 08:31:32;;;;;;;4.70;0.93;;;13.70;99.90;;;;;;5125188;27;20039;-85
2023/09/14 08:33:58;;;;;;;5.82;1.45;;;13.80;99.90;;;;;;5122149;27;20044;-85
2023/09/14 08:36:23;;;;;;;4.40;0.88;;;13.90;99.90;;;;;;5123215;27;20063;-85
2023/09/14 08:38:49;;;;;;;9.48;0.90;;;14.00;99.90;;;;;;5108246;27;20043;-85
2023/09/14 08:41:43;;;;;;;7.70;1.27;;;14.10;99.90;;;;;;5125986;27;20395;-85
2023/09/14 08:44:09;;;;;;;2.47;0.87;;;14.20;99.90;;;;;;5104861;28;20046;-85
2023/09/14 08:46:35;;;;;;;6.43;1.20;;;14.20;99.90;;;;;;5126011;27;20328;-85
2023/09/14 08:49:03;;;;;;;5.53;1.65;;;14.30;99.90;;;;;;5125971;27;20391;-84
2023/09/14 08:51:32;;;;;;;5.13;1.20;;;14.30;99.90;;;;;;5123104;27;20515;-85
2023/09/14 08:53:59;;;;;;;6.95;1.20;;;14.40;99.90;;;;;;5122687;27;20563;-85
2023/09/14 08:56:26;;;;;;;4.22;1.15;;;14.40;99.90;;;;;;5123559;27;20067;-85
2023/09/14 08:58:52;;;;;;;5.15;1.38;;;14.50;99.90;;;;;;5125803;27;20027;-85
2023/09/14 09:01:18;;;;;;;6.90;1.05;;;15.80;99.90;;;;;;5124921;27;20050;-85
2023/09/14 09:03:44;;;;;;;6.28;1.65;;;14.60;99.90;;;;;;5120301;27;20036;-85
2023/09/14 09:06:12;;;;;;;4.88;0.82;;;14.60;99.90;;;;;;5121365;27;20096;-85
2023/09/14 09:08:38;;;;;;;4.50;1.30;;;14.60;99.90;;;;;;5107109;27;20448;-86
2023/09/14 09:11:04;;;;;;;3.83;1.15;;;14.60;99.90;;;;;;5124066;27;20043;-86
2023/09/14 09:13:41;;;;;;;7.72;1.50;;;14.70;99.90;;;;;;5123958;27;20070;-85
2023/09/14 09:16:06;;;;;;;5.95;0.88;;;14.90;99.90;;;;;;5121834;27;20043;-85
2023/09/14 09:18:35;;;;;;;6.35;1.13;;;16.10;99.90;;;;;;5124255;27;20035;-86
2023/09/14 09:21:05;;;;;;;5.82;1.38;;;15.00;99.90;;;;;;5125747;27;20039;-85
2023/09/14 09:23:33;;;;;;;3.63;1.17;;;15.10;99.90;;;;;;5121589;27;20087;-85
2023/09/14 09:26:01;;;;;;;5.10;1.42;;;15.20;99.90;;;;;;5103875;28;20115;-85
2023/09/14 09:28:30;;;;;;;7.13;1.52;;;15.30;99.90;;;;;;5123015;27;20119;-85
2023/09/14 09:30:56;;;;;;;4.85;1.95;;;16.70;99.90;;;;;;5124948;27;20035;-85
2023/09/14 09:33:35;;;;;;;9.20;1.30;;;15.50;99.90;;;;;;5125239;27;20046;-85
2023/09/14 09:36:12;;;;;;;7.13;1.50;;;15.60;99.90;;;;;;5135502;27;20051;-85
2023/09/14 09:38:38;;;;;;;7.30;1.55;;;15.70;99.90;;;;;;5125945;27;20078;-85
2023/09/14 09:41:11;;;;;;;6.95;1.80;;;15.70;99.90;;;;;;5127462;27;20081;-86
2023/09/14 09:43:39;;;;;;;11.35;1.70;;;15.80;99.90;;;;;;5125231;27;20050;-86
2023/09/14 09:46:14;;;;;;;5.80;1.45;;;15.80;99.90;;;;;;5141905;27;20076;-86
2023/09/14 09:48:41;;;;;;;5.32;1.38;;;16.00;99.90;;;;;;5145006;27;20094;-86
2023/09/14 09:51:06;;;;;;;5.38;1.25;;;16.00;99.90;;;;;;5126633;27;20038;-86
2023/09/14 09:53:32;;;;;;;6.75;1.10;;;16.00;99.90;;;;;;5125264;27;20039;-85
2023/09/14 09:55:58;;;;;;;6.53;1.30;;;16.00;99.90;;;;;;5123561;27;20068;-85
2023/09/14 09:58:34;;;;;;;6.78;1.20;;;16.00;99.90;;;;;;5142072;27;20046;-85
2023/09/14 10:01:00;;;;;;;9.38;1.77;;;16.10;99.90;;;;;;5145812;27;20038;-85
2023/09/14 10:03:26;;;;;;;5.40;1.40;;;16.10;99.90;;;;;;5145257;27;20478;-85
2023/09/14 10:05:52;;;;;;;4.55;1.50;;;16.10;99.90;;;;;;5141731;27;20035;-86
2023/09/14 10:08:20;;;;;;;5.28;1.52;;;16.10;99.90;;;;;;5142314;27;20043;-86
2023/09/14 10:10:51;;;;;;;4.15;1.27;;;16.20;99.90;;;;;;5145895;27;20027;-85
2023/09/14 10:13:23;;;;;;;4.20;1.48;;;17.10;99.90;;;;;;5145532;27;20043;-86
2023/09/14 10:15:53;;;;;;;4.97;1.52;;;16.20;99.90;;;;;;5141822;27;20031;-85
2023/09/14 10:18:20;;;;;;;8.60;1.60;;;17.20;99.90;;;;;;5106427;27;20529;-85
2023/09/14 10:20:49;;;;;;;7.55;1.88;;;16.30;99.90;;;;;;5125226;27;20070;-86
2023/09/14 10:23:16;;;;;;;4.25;1.23;;;16.40;99.90;;;;;;5109464;27;20047;-85
2023/09/14 10:25:45;;;;;;;10.10;1.55;;;16.40;99.90;;;;;;5124517;27;20078;-85
2023/09/14 10:28:14;;;;;;;5.03;1.63;;;16.40;99.90;;;;;;5141197;27;20043;-85
2023/09/14 10:30:40;;;;;;;5.78;1.55;;;16.40;99.90;;;;;;5107723;27;20088;-85
2023/09/14 10:33:09;;;;;;;8.00;1.50;;;16.50;99.90;;;;;;5144185;27;20074;-85
2023/09/14 10:35:38;;;;;;;7.10;1.92;;;16.50;99.90;;;;;;5143623;27;20103;-85
2023/09/14 10:38:06;;;;;;;4.38;1.45;;;16.50;99.90;;;;;;5106106;27;20084;-86
2023/09/14 10:40:39;;;;;;;6.20;1.48;;;16.50;99.90;;;;;;5140026;27;20547;-86
2023/09/14 10:43:08;;;;;;;7.15;1.75;;;16.60;99.90;;;;;;5109119;27;20367;-86
2023/09/14 10:45:37;;;;;;;8.52;1.70;;;16.50;99.90;;;;;;5125493;27;20501;-86
2023/09/14 10:48:09;;;;;;;4.32;1.48;;;16.50;99.90;;;;;;5140497;27;20047;-86
2023/09/14 10:50:35;;;;;;;7.50;1.90;;;16.50;99.90;;;;;;5141791;27;20046;-86
2023/09/14 10:53:02;;;;;;;7.07;1.63;;;16.60;99.90;;;;;;5125834;27;20057;-85
2023/09/14 10:55:28;;;;;;;5.72;1.40;;;16.70;99.90;;;;;;5125648;27;20049;-85
2023/09/14 10:57:53;;;;;;;4.63;1.63;;;16.70;99.90;;;;;;5140872;27;20031;-85
2023/09/14 11:00:34;;;;;;;3.67;1.35;;;16.80;99.90;;;;;;5141058;27;20479;-85
2023/09/14 11:02:59;;;;;;;9.50;2.03;;;16.90;99.90;;;;;;5129297;27;20054;-85
2023/09/14 11:05:38;;;;;;;4.18;1.27;;;16.90;99.90;;;;;;5122677;27;20046;-85
2023/09/14 11:08:04;;;;;;;5.93;1.30;;;16.90;99.90;;;;;;5105602;27;20043;-85
2023/09/14 11:10:29;;;;;;;7.75;2.22;;;16.80;99.90;;;;;;5140375;27;20570;-85
2023/09/14 11:13:21;;;;;;;4.85;1.55;;;16.80;99.90;;;;;;5142904;27;20156;-85
2023/09/14 11:16:04;;;;;;;3.88;1.35;;;16.80;99.90;;;;;;5127341;27;20095;-85
2023/09/14 11:18:45;;;;;;;6.10;1.20;;;18.10;99.90;;;;;;5122632;27;20372;-85
2023/09/14 11:21:32;;;;;;;6.50;1.80;;;17.00;99.90;;;;;;5140795;27;20043;-86
2023/09/14 11:23:59;;;;;;;4.88;1.27;;;17.00;99.90;;;;;;5143034;27;20103;-86
2023/09/14 11:26:39;;;;;;;8.48;1.65;;;18.10;99.90;;;;;;5144669;27;20071;-86
2023/09/14 11:29:08;;;;;;;7.82;1.95;;;17.20;99.90;;;;;;5105308;27;20492;-85
2023/09/14 11:31:35;;;;;;;6.68;1.90;;;17.10;99.90;;;;;;5139813;27;20050;-85
2023/09/14 11:34:05;;;;;;;4.32;1.42;;;17.10;99.90;;;;;;5143412;27;20041;-85
2023/09/14 11:36:32;;;;;;;8.02;1.63;;;17.20;99.90;;;;;;5143081;27;20054;-85
2023/09/14 11:38:59;;;;;;;5.63;1.52;;;17.30;99.90;;;;;;5122499;27;20039;-85
2023/09/14 11:41:46;;;;;;;4.72;1.90;;;17.40;99.90;;;;;;5140629;27;20077;-85
2023/09/14 11:44:12;;;;;;;2.72;1.13;;;17.60;99.90;;;;;;5139630;27;20035;-84
2023/09/14 11:46:38;;;;;;;3.75;1.48;;;17.70;99.90;;;;;;5140503;27;20434;-85
2023/09/14 11:49:04;;;;;;;5.45;1.88;;;17.70;99.90;;;;;;5144425;27;20045;-85
2023/09/14 11:51:31;;;;;;;9.25;2.17;;;17.80;99.90;;;;;;5126585;27;20039;-85
2023/09/14 11:53:59;;;;;;;3.63;1.73;;;17.90;99.90;;;;;;5145499;27;20431;-85
2023/09/14 11:56:30;;;;;;;5.40;1.95;;;18.00;99.90;;;;;;5126397;27;20090;-84
2023/09/14 11:59:00;;;;;;;3.97;1.67;;;18.20;99.90;;;;;;5125760;27;20034;-84
2023/09/14 12:01:27;;;;;;;6.15;1.80;;;18.20;99.90;;;;;;5144878;27;20058;-85
2023/09/14 12:03:54;;;;;;;8.90;1.77;;;18.30;99.90;;;;;;5126785;27;20046;-85
2023/09/14 12:06:19;;;;;;;7.85;1.88;;;18.40;99.90;;;;;;5128958;27;20046;-86
2023/09/14 12:08:47;;;;;;;6.10;1.75;;;18.80;99.90;;;;;;5120711;27;20031;-85
2023/09/14 12:11:14;;;;;;;5.55;1.55;;;18.60;99.90;;;;;;5129614;27;20382;-85
2023/09/14 12:13:52;;;;;;;3.80;1.88;;;18.70;99.90;;;;;;5147193;27;20039;-86
2023/09/14 12:16:23;;;;;;;7.38;1.98;;;18.70;99.90;;;;;;5125832;27;20587;-85
2023/09/14 12:18:50;;;;;;;5.78;1.83;;;18.70;99.90;;;;;;5143883;27;20054;-85
2023/09/14 12:21:18;;;;;;;4.47;1.70;;;18.80;99.90;;;;;;5147948;27;20042;-86
2023/09/14 12:23:47;;;;;;;3.92;1.80;;;18.90;99.90;;;;;;5111838;27;20066;-84
2023/09/14 12:26:14;;;;;;;3.90;1.85;;;19.00;99.90;;;;;;5126222;27;20125;-85
2023/09/14 12:28:41;;;;;;;8.25;1.98;;;19.00;99.90;;;;;;5108576;27;20039;-86
2023/09/14 12:31:08;;;;;;;7.30;2.20;;;19.10;99.90;;;;;;5128491;27;20042;-86
2023/09/14 12:33:34;;;;;;;8.30;2.25;;;19.20;99.90;;;;;;5123043;27;20042;-86
2023/09/14 12:36:03;;;;;;;5.50;2.20;;;19.20;99.90;;;;;;5133363;27;20051;-91
2023/09/14 12:38:30;;;;;;;7.70;2.05;;;19.20;99.90;;;;;;5147659;27;20131;-91
2023/09/14 12:40:57;;;;;;;6.03;2.22;;;19.30;99.90;;;;;;5125946;27;20050;-92
2023/09/14 12:43:24;;;;;;;5.97;2.03;;;19.20;99.90;;;;;;5107052;27;20474;-93
2023/09/14 12:45:51;;;;;;;2.88;1.92;;;19.20;99.90;;;;;;5115371;27;20082;-88
2023/09/14 12:48:27;;;;;;;5.70;2.05;;;19.20;99.90;;;;;;5137466;27;20039;-90